createdAt,value
2023-03-15T00:01:29.425Z,45.79
2023-03-15T00:04:14.863Z,45.74
2023-03-15T00:07:00.191Z,45.87
2023-03-15T00:09:45.635Z,45.91
2023-03-15T00:12:31.993Z,45.82
2023-03-15T00:15:17.529Z,45.82
2023-03-15T00:18:03.243Z,45.88
2023-03-15T00:20:49.066Z,45.88
2023-03-15T00:23:34.744Z,45.95
2023-03-15T00:26:20.235Z,45.91
2023-03-15T00:29:05.766Z,46.06
2023-03-15T00:31:51.710Z,46.06
2023-03-15T00:34:37.229Z,46.00
2023-03-15T00:37:25.691Z,45.91
2023-03-15T00:40:12.301Z,45.90
2023-03-15T00:42:58.045Z,45.71
2023-03-15T00:45:45.252Z,46.03
2023-03-15T00:48:31.154Z,45.96
2023-03-15T00:51:21.440Z,45.83
2023-03-15T00:54:06.877Z,45.91
2023-03-15T00:56:52.278Z,46.03
2023-03-15T00:59:37.678Z,45.99
2023-03-15T01:02:22.966Z,45.99
2023-03-15T01:05:09.673Z,46.01
2023-03-15T01:07:54.940Z,45.93
2023-03-15T01:10:40.409Z,46.00
2023-03-15T01:13:26.342Z,45.96
2023-03-15T01:16:13.818Z,46.07
2023-03-15T01:19:00.308Z,45.97
2023-03-15T01:21:47.829Z,46.05
2023-03-15T01:24:35.514Z,46.05
2023-03-15T01:27:20.782Z,45.89
2023-03-15T01:30:07.145Z,45.95
2023-03-15T01:32:52.219Z,45.96
2023-03-15T01:35:37.597Z,45.92
2023-03-15T01:38:22.748Z,46.00
2023-03-15T01:41:09.630Z,46.07
2023-03-15T01:43:55.977Z,46.09
2023-03-15T01:46:41.942Z,46.12
2023-03-15T01:49:39.182Z,46.20
2023-03-15T01:52:30.779Z,46.08
2023-03-15T01:55:22.939Z,46.06
2023-03-15T01:58:27.023Z,46.10
2023-03-15T02:01:15.451Z,46.32
2023-03-15T02:04:09.452Z,46.04
2023-03-15T02:07:00.934Z,46.06
2023-03-15T02:10:01.752Z,46.07
2023-03-15T02:12:52.291Z,45.95
2023-03-15T02:15:37.937Z,46.02
2023-03-15T02:18:26.046Z,46.07
2023-03-15T02:21:18.895Z,46.05
2023-03-15T02:24:10.646Z,46.19
2023-03-15T02:26:58.083Z,46.16
2023-03-15T02:29:43.373Z,46.06
2023-03-15T02:32:28.924Z,46.12
2023-03-15T02:35:32.894Z,45.98
2023-03-15T02:38:19.031Z,46.10
2023-03-15T02:41:05.020Z,46.12
2023-03-15T02:43:55.958Z,45.93
2023-03-15T02:46:42.804Z,46.00
2023-03-15T02:49:31.646Z,45.98
2023-03-15T02:52:17.467Z,46.00
2023-03-15T02:55:03.213Z,45.91
2023-03-15T02:57:49.118Z,46.05
2023-03-15T03:00:34.325Z,46.14
2023-03-15T03:03:20.029Z,46.17
2023-03-15T03:06:05.769Z,46.06
2023-03-15T03:08:51.440Z,46.14
2023-03-15T03:11:38.881Z,46.27
2023-03-15T03:14:24.794Z,46.18
2023-03-15T03:17:10.249Z,46.48
2023-03-15T03:19:57.300Z,46.67
2023-03-15T03:22:50.221Z,46.64
2023-03-15T03:25:37.595Z,46.84
2023-03-15T03:28:28.894Z,46.63
2023-03-15T03:31:19.485Z,46.70
2023-03-15T03:34:05.176Z,46.96
2023-03-15T03:36:50.441Z,47.08
2023-03-15T03:39:45.275Z,47.00
2023-03-15T03:42:30.600Z,47.24
2023-03-15T03:45:15.905Z,47.26
2023-03-15T03:48:03.798Z,47.28
2023-03-15T03:50:51.202Z,47.45
2023-03-15T03:53:37.152Z,47.58
2023-03-15T03:56:23.433Z,47.60
2023-03-15T03:59:08.693Z,47.46
2023-03-15T04:02:04.617Z,47.61
2023-03-15T04:04:50.412Z,47.65
2023-03-15T04:07:39.345Z,47.65
2023-03-15T04:10:27.088Z,47.21
2023-03-15T04:13:12.830Z,47.37
2023-03-15T04:16:01.369Z,47.30
2023-03-15T04:18:50.542Z,47.07
2023-03-15T04:21:35.739Z,46.89
2023-03-15T04:24:39.758Z,46.78
2023-03-15T04:27:46.639Z,46.76
2023-03-15T04:30:51.359Z,46.63
2023-03-15T04:33:56.282Z,46.45
2023-03-15T04:36:54.769Z,46.56
2023-03-15T04:39:58.039Z,46.36
2023-03-15T04:43:03.330Z,46.39
2023-03-15T04:46:08.395Z,46.40
2023-03-15T04:49:15.257Z,46.45
2023-03-15T04:52:14.034Z,47.03
2023-03-15T04:55:03.106Z,47.44
2023-03-15T04:57:55.498Z,47.89
2023-03-15T05:00:58.669Z,48.11
2023-03-15T05:04:03.311Z,48.59
2023-03-15T05:07:04.145Z,48.46
2023-03-15T05:10:03.164Z,48.26
2023-03-15T05:12:58.227Z,48.26
2023-03-15T05:16:04.371Z,47.99
2023-03-15T05:19:16.127Z,47.67
2023-03-15T05:22:17.873Z,47.46
2023-03-15T05:25:26.533Z,47.23
2023-03-15T05:28:23.638Z,46.98
2023-03-15T05:31:41.269Z,46.93
2023-03-15T05:34:38.355Z,46.89
2023-03-15T05:37:36.447Z,46.83
2023-03-15T05:41:01.983Z,46.65
2023-03-15T05:44:16.954Z,46.76
2023-03-15T05:47:24.660Z,46.70
2023-03-15T05:50:29.283Z,47.19
2023-03-15T05:53:33.178Z,47.31
2023-03-15T05:56:44.379Z,47.58
2023-03-15T05:59:39.001Z,47.64
2023-03-15T06:02:42.905Z,47.84
2023-03-15T06:05:52.016Z,47.67
2023-03-15T06:08:47.016Z,47.43
2023-03-15T06:11:32.730Z,47.13
2023-03-15T06:14:19.578Z,46.93
2023-03-15T06:17:10.450Z,46.73
2023-03-15T06:19:56.823Z,46.71
2023-03-15T06:22:42.052Z,46.43
2023-03-15T06:25:38.340Z,46.49
2023-03-15T06:28:24.033Z,46.42
2023-03-15T06:31:15.090Z,46.46
2023-03-15T06:34:21.259Z,46.32
2023-03-15T06:37:07.737Z,46.36
2023-03-15T06:39:54.371Z,46.25
2023-03-15T06:42:41.747Z,46.33
2023-03-15T06:45:31.730Z,46.36
2023-03-15T06:48:17.723Z,46.37
2023-03-15T06:51:05.881Z,46.22
2023-03-15T06:53:51.296Z,46.23
2023-03-15T06:56:37.443Z,46.08
2023-03-15T06:59:23.573Z,46.10
2023-03-15T07:02:17.886Z,46.11
2023-03-15T07:05:05.497Z,46.11
2023-03-15T07:07:51.422Z,45.98
2023-03-15T07:10:37.066Z,45.97
2023-03-15T07:13:22.752Z,45.91
2023-03-15T07:16:08.063Z,45.89
2023-03-15T07:18:56.642Z,45.90
2023-03-15T07:21:42.098Z,45.86
2023-03-15T07:24:28.349Z,45.80
2023-03-15T07:27:16.142Z,45.85
2023-03-15T07:30:03.499Z,45.76
2023-03-15T07:32:49.054Z,45.77
2023-03-15T07:35:34.474Z,45.69
2023-03-15T07:38:20.949Z,45.61
2023-03-15T07:41:07.104Z,45.70
2023-03-15T07:43:58.141Z,45.60
2023-03-15T07:46:43.973Z,45.42
2023-03-15T07:49:30.083Z,45.71
2023-03-15T07:52:15.442Z,45.56
2023-03-15T07:55:01.258Z,45.50
2023-03-15T07:57:48.391Z,45.72
2023-03-15T08:00:35.209Z,45.43
2023-03-15T08:03:20.943Z,45.32
2023-03-15T08:06:06.829Z,45.37
2023-03-15T08:08:52.024Z,45.32
2023-03-15T08:11:37.641Z,45.25
2023-03-15T08:14:23.087Z,45.31
2023-03-15T08:17:13.017Z,45.45
2023-03-15T08:19:58.305Z,45.45
2023-03-15T08:22:44.959Z,45.45
2023-03-15T08:25:30.957Z,45.42
2023-03-15T08:28:16.110Z,45.30
2023-03-15T08:31:01.709Z,45.36
2023-03-15T08:33:47.934Z,45.29
2023-03-15T08:36:33.882Z,45.42
2023-03-15T08:39:19.286Z,45.46
2023-03-15T08:42:04.651Z,45.21
2023-03-15T08:44:50.226Z,45.18
2023-03-15T08:47:35.664Z,45.22
2023-03-15T08:50:20.884Z,45.24
2023-03-15T08:53:06.196Z,45.18
2023-03-15T08:55:51.372Z,45.28
2023-03-15T08:58:36.869Z,45.31
2023-03-15T09:01:22.485Z,44.86
2023-03-15T09:04:07.707Z,45.29
2023-03-15T09:06:53.825Z,45.21
2023-03-15T09:09:39.098Z,45.22
2023-03-15T09:12:24.340Z,45.28
2023-03-15T09:15:10.217Z,45.33
2023-03-15T09:17:55.783Z,45.21
2023-03-15T09:20:41.557Z,45.24
2023-03-15T09:23:27.308Z,45.34
2023-03-15T09:26:13.037Z,45.19
2023-03-15T09:28:58.277Z,45.35
2023-03-15T09:31:43.536Z,45.21
2023-03-15T09:34:33.333Z,45.13
2023-03-15T09:37:26.594Z,45.13
2023-03-15T09:40:21.312Z,45.16
2023-03-15T09:43:06.684Z,45.17
2023-03-15T09:46:19.558Z,45.04
2023-03-15T09:49:20.514Z,45.07
2023-03-15T09:52:14.604Z,44.99
2023-03-15T09:55:06.852Z,45.17
2023-03-15T09:58:04.243Z,45.11
2023-03-15T10:00:54.623Z,45.05
2023-03-15T10:03:49.060Z,45.00
2023-03-15T10:06:38.059Z,44.82
2023-03-15T10:09:26.736Z,44.92
2023-03-15T10:12:21.401Z,44.88
2023-03-15T10:15:26.261Z,45.00
2023-03-15T10:18:40.167Z,45.15
2023-03-15T10:21:52.075Z,45.14
2023-03-15T10:24:44.116Z,44.99
2023-03-15T10:27:36.172Z,45.01
2023-03-15T10:30:27.896Z,45.02
2023-03-15T10:33:34.044Z,45.16
2023-03-15T10:36:22.117Z,45.06
2023-03-15T10:39:10.069Z,45.13
2023-03-15T10:41:55.648Z,45.08
2023-03-15T10:44:40.755Z,45.02
2023-03-15T10:47:27.372Z,45.10
2023-03-15T10:50:26.213Z,45.01
2023-03-15T10:53:20.620Z,44.94
2023-03-15T10:56:13.813Z,45.13
2023-03-15T10:59:11.949Z,45.17
2023-03-15T11:02:13.929Z,45.04
2023-03-15T11:04:59.035Z,45.00
2023-03-15T11:08:15.778Z,45.11
2023-03-15T11:11:00.966Z,44.93
2023-03-15T11:13:59.982Z,44.94
2023-03-15T11:16:55.360Z,44.90
2023-03-15T11:19:42.587Z,44.97
2023-03-15T11:22:27.855Z,44.97
2023-03-15T11:25:17.625Z,44.96
2023-03-15T11:28:04.491Z,45.06
2023-03-15T11:30:50.182Z,45.02
2023-03-15T11:33:45.733Z,44.99
2023-03-15T11:36:33.939Z,45.09
2023-03-15T11:39:34.031Z,45.15
2023-03-15T11:42:31.733Z,45.21
2023-03-15T11:45:40.554Z,45.47
2023-03-15T11:48:52.196Z,45.69
2023-03-15T11:51:37.594Z,46.71
2023-03-15T11:54:26.137Z,47.14
2023-03-15T11:57:33.153Z,48.76
2023-03-15T12:00:19.865Z,50.26
2023-03-15T12:03:30.351Z,50.75
2023-03-15T12:06:39.447Z,50.53
2023-03-15T12:09:36.233Z,49.82
2023-03-15T12:15:19.051Z,48.39
2023-03-15T12:18:08.488Z,48.16
2023-03-15T12:21:15.736Z,47.84
2023-03-15T12:24:07.374Z,47.53
2023-03-15T12:27:03.384Z,47.50
2023-03-15T12:29:58.918Z,47.35
2023-03-15T12:32:50.155Z,47.16
2023-03-15T12:35:44.889Z,47.22
2023-03-15T12:38:41.795Z,47.02
2023-03-15T12:41:40.037Z,46.91
2023-03-15T12:44:39.499Z,46.83
2023-03-15T12:47:24.962Z,46.83
2023-03-15T12:50:44.425Z,46.71
2023-03-15T12:53:37.071Z,46.86
2023-03-15T12:56:33.963Z,46.67
2023-03-15T12:59:23.428Z,46.58
2023-03-15T13:02:45.359Z,46.47
2023-03-15T13:05:36.294Z,46.50
2023-03-15T13:08:23.454Z,46.52
2023-03-15T13:11:20.621Z,46.32
2023-03-15T13:17:36.127Z,46.41
2023-03-15T13:20:24.678Z,46.38
2023-03-15T13:23:26.317Z,46.77
2023-03-15T13:26:29.918Z,47.21
2023-03-15T13:29:17.732Z,47.43
2023-03-15T13:32:16.218Z,47.17
2023-03-15T13:35:02.253Z,47.09
2023-03-15T13:37:47.610Z,46.97
2023-03-15T13:40:33.073Z,46.86
2023-03-15T13:43:18.365Z,46.80
2023-03-15T13:46:04.428Z,46.93
2023-03-15T13:48:51.600Z,47.43
2023-03-15T13:51:39.451Z,47.35
2023-03-15T13:54:29.916Z,47.42
2023-03-15T13:57:23.568Z,47.67
2023-03-15T14:00:19.341Z,47.65
2023-03-15T14:03:14.665Z,47.63
2023-03-15T14:06:00.127Z,48.05
2023-03-15T14:08:45.553Z,48.36
2023-03-15T14:11:40.655Z,49.15
2023-03-15T14:14:28.156Z,49.18
2023-03-15T14:17:25.022Z,49.14
2023-03-15T14:20:16.096Z,48.80
2023-03-15T14:23:03.754Z,48.38
2023-03-15T14:26:01.925Z,48.21
2023-03-15T14:28:49.913Z,48.04
2023-03-15T14:31:46.384Z,47.76
2023-03-15T14:34:37.929Z,47.63
2023-03-15T14:37:31.579Z,47.46
2023-03-15T14:40:21.559Z,47.68
2023-03-15T14:43:08.348Z,47.60
2023-03-15T14:45:54.138Z,47.47
2023-03-15T14:48:39.940Z,47.62
2023-03-15T14:51:28.408Z,47.53
2023-03-15T14:54:13.821Z,47.83
2023-03-15T14:56:59.024Z,47.41
2023-03-15T14:59:44.414Z,47.69
2023-03-15T15:02:29.931Z,47.53
2023-03-15T15:05:34.843Z,47.31
2023-03-15T15:08:24.731Z,47.62
2023-03-15T15:11:11.059Z,47.46
2023-03-15T15:13:57.699Z,47.56
2023-03-15T15:16:43.632Z,47.44
2023-03-15T15:19:28.862Z,47.71
2023-03-15T15:22:14.615Z,47.40
2023-03-15T15:25:00.050Z,47.49
2023-03-15T15:27:45.660Z,47.79
2023-03-15T15:30:31.450Z,47.96
2023-03-15T15:33:16.794Z,48.05
2023-03-15T15:36:02.725Z,48.08
2023-03-15T15:38:48.301Z,48.03
2023-03-15T15:41:34.513Z,48.29
2023-03-15T15:44:21.957Z,48.10
2023-03-15T15:47:07.886Z,48.09
2023-03-15T15:49:53.238Z,48.14
2023-03-15T15:52:41.119Z,48.03
2023-03-15T15:55:31.213Z,47.98
2023-03-15T15:58:17.571Z,47.75
2023-03-15T16:01:03.793Z,47.79
2023-03-15T16:03:49.277Z,47.74
2023-03-15T16:06:36.357Z,47.49
2023-03-15T16:09:22.814Z,46.92
2023-03-15T16:12:13.795Z,47.28
2023-03-15T16:14:59.284Z,47.36
2023-03-15T16:17:45.788Z,47.13
2023-03-15T16:20:30.990Z,47.17
2023-03-15T16:23:24.501Z,46.94
2023-03-15T16:26:15.556Z,47.06
2023-03-15T16:29:02.427Z,47.65
2023-03-15T16:31:48.623Z,47.62
2023-03-15T16:34:34.557Z,47.66
2023-03-15T16:37:30.397Z,48.06
2023-03-15T16:40:23.106Z,47.95
2023-03-15T16:43:13.172Z,48.12
2023-03-15T16:45:58.592Z,48.65
2023-03-15T16:48:43.967Z,48.47
2023-03-15T16:51:29.641Z,48.62
2023-03-15T16:54:24.531Z,48.47
2023-03-15T16:57:19.179Z,48.66
2023-03-15T17:00:11.681Z,48.23
2023-03-15T17:02:59.972Z,48.08
2023-03-15T17:05:47.338Z,48.14
2023-03-15T17:08:32.713Z,47.97
2023-03-15T17:11:18.342Z,47.83
2023-03-15T17:14:04.436Z,47.74
2023-03-15T17:16:49.683Z,47.67
2023-03-15T17:19:36.616Z,47.76
2023-03-15T17:22:22.558Z,47.53
2023-03-15T17:25:08.963Z,47.48
2023-03-15T17:27:54.523Z,47.61
2023-03-15T17:30:40.250Z,47.55
2023-03-15T17:33:26.021Z,47.60
2023-03-15T17:36:13.796Z,47.40
2023-03-15T17:39:02.775Z,47.34
2023-03-15T17:41:49.236Z,47.06
2023-03-15T17:44:34.822Z,46.99
2023-03-15T17:47:19.955Z,47.10
2023-03-15T17:50:05.857Z,47.11
2023-03-15T17:53:18.780Z,47.68
2023-03-15T17:56:04.340Z,46.74
2023-03-15T17:58:49.829Z,46.48
2023-03-15T18:01:35.556Z,46.57
2023-03-15T18:04:21.231Z,46.47
2023-03-15T18:07:06.711Z,46.42
2023-03-15T18:09:53.402Z,46.38
2023-03-15T18:12:39.344Z,46.73
2023-03-15T18:15:25.307Z,46.28
2023-03-15T18:18:10.769Z,46.46
2023-03-15T18:20:55.979Z,46.26
2023-03-15T18:23:42.777Z,45.98
2023-03-15T18:26:28.134Z,46.11
2023-03-15T18:29:13.416Z,45.75
2023-03-15T18:31:59.095Z,44.89
2023-03-15T18:34:44.299Z,44.80
2023-03-15T18:37:29.670Z,44.68
2023-03-15T18:40:17.856Z,44.50
2023-03-15T18:43:05.367Z,44.71
2023-03-15T18:45:51.441Z,44.45
2023-03-15T18:48:40.820Z,44.38
2023-03-15T18:51:29.124Z,44.40
2023-03-15T18:54:14.318Z,44.07
2023-03-15T18:56:59.835Z,44.33
2023-03-15T18:59:45.076Z,45.10
2023-03-15T19:02:30.710Z,45.52
2023-03-15T19:05:16.695Z,46.00
2023-03-15T19:08:02.002Z,46.29
2023-03-15T19:10:47.360Z,46.22
2023-03-15T19:13:33.184Z,46.19
2023-03-15T19:16:20.654Z,46.73
2023-03-15T19:19:06.197Z,46.33
2023-03-15T19:21:57.761Z,46.10
2023-03-15T19:24:43.815Z,45.89
2023-03-15T19:27:29.701Z,45.82
2023-03-15T19:30:19.000Z,45.62
2023-03-15T19:33:04.859Z,45.34
2023-03-15T19:35:51.235Z,45.48
2023-03-15T19:38:37.015Z,45.28
2023-03-15T19:41:22.212Z,45.42
2023-03-15T19:44:07.827Z,45.23
2023-03-15T19:46:53.196Z,45.25
2023-03-15T19:49:38.633Z,44.97
2023-03-15T19:52:24.016Z,45.17
2023-03-15T19:55:09.452Z,44.96
2023-03-15T19:57:54.951Z,44.85
2023-03-15T20:00:40.315Z,44.89
2023-03-15T20:03:25.656Z,44.65
2023-03-15T20:06:12.561Z,44.76
2023-03-15T20:08:58.324Z,44.68
2023-03-15T20:11:43.634Z,44.72
2023-03-15T20:14:28.801Z,44.71
2023-03-15T20:17:15.123Z,44.71
2023-03-15T20:20:00.599Z,44.77
2023-03-15T20:22:46.310Z,44.53
2023-03-15T20:25:31.778Z,44.59
2023-03-15T20:28:17.322Z,44.63
2023-03-15T20:31:12.362Z,44.69
2023-03-15T20:33:57.751Z,44.75
2023-03-15T20:36:43.049Z,44.81
2023-03-15T20:39:28.310Z,44.84
2023-03-15T20:42:13.686Z,44.73
2023-03-15T20:44:58.965Z,44.76
2023-03-15T20:47:44.198Z,44.63
2023-03-15T20:50:29.507Z,44.63
2023-03-15T20:53:14.760Z,44.71
2023-03-15T20:56:00.785Z,44.68
2023-03-15T20:58:47.583Z,44.74
2023-03-15T21:01:34.365Z,44.82
2023-03-15T21:04:22.253Z,44.77
2023-03-15T21:07:07.946Z,44.71
2023-03-15T21:09:53.305Z,44.62
2023-03-15T21:12:38.611Z,44.64
2023-03-15T21:15:24.208Z,44.77
2023-03-15T21:18:09.871Z,44.71
2023-03-15T21:21:00.776Z,44.64
2023-03-15T21:23:46.172Z,44.58
2023-03-15T21:26:31.440Z,44.82
2023-03-15T21:29:17.333Z,44.64
2023-03-15T21:32:02.634Z,44.65
2023-03-15T21:34:47.865Z,44.83
2023-03-15T21:37:33.140Z,45.03
2023-03-15T21:40:18.427Z,45.14
2023-03-15T21:43:03.743Z,45.11
2023-03-15T21:45:49.093Z,45.22
2023-03-15T21:48:35.312Z,45.30
2023-03-15T21:51:22.496Z,45.31
2023-03-15T21:54:08.511Z,45.41
2023-03-15T21:56:53.839Z,45.40
2023-03-15T21:59:39.613Z,45.43
2023-03-15T22:02:25.201Z,45.38
2023-03-15T22:05:13.959Z,45.20
2023-03-15T22:07:59.400Z,45.25
2023-03-15T22:10:44.890Z,45.20
2023-03-15T22:13:30.592Z,45.29
2023-03-15T22:16:16.118Z,45.14
2023-03-15T22:19:03.412Z,45.09
2023-03-15T22:21:48.548Z,45.13
2023-03-15T22:24:34.124Z,45.09
2023-03-15T22:27:19.570Z,45.16
2023-03-15T22:30:06.651Z,45.38
2023-03-15T22:32:51.626Z,45.21
2023-03-15T22:35:36.819Z,45.27
2023-03-15T22:38:22.986Z,45.37
2023-03-15T22:41:10.772Z,45.23
2023-03-15T22:43:56.094Z,45.38
2023-03-15T22:46:41.424Z,45.40
2023-03-15T22:49:26.810Z,45.53
2023-03-15T22:52:12.141Z,45.37
2023-03-15T22:54:57.678Z,45.55
2023-03-15T22:57:42.806Z,45.53
2023-03-15T23:00:28.156Z,45.50
2023-03-15T23:03:13.547Z,45.49
2023-03-15T23:05:58.967Z,45.45
2023-03-15T23:08:44.722Z,45.41
2023-03-15T23:11:30.745Z,45.71
2023-03-15T23:14:16.407Z,45.51
2023-03-15T23:17:04.402Z,45.50
2023-03-15T23:19:49.836Z,45.46
2023-03-15T23:22:35.124Z,45.54
2023-03-15T23:25:22.809Z,45.61
2023-03-15T23:28:08.298Z,45.54
2023-03-15T23:30:53.623Z,45.62
2023-03-15T23:33:38.672Z,45.65
2023-03-15T23:36:24.013Z,45.56
2023-03-15T23:39:09.258Z,45.75
2023-03-15T23:41:57.829Z,45.80
2023-03-15T23:44:43.426Z,45.74
2023-03-15T23:47:28.565Z,45.44
2023-03-15T23:50:13.903Z,45.78
2023-03-15T23:52:59.210Z,45.75
2023-03-15T23:55:44.397Z,45.81
2023-03-15T23:58:29.961Z,45.75
